Aviation Digital Data Service (ADDS)

Output produced by METARs form (0141 UTC 20 February 2018)
found at http://www.aviationweather.gov/adds/metars/
 
METAR text: KDUJ 200053Z AUTO 12006KT 4SM BR BKN041 OVC047 07/06 A3015 RMK AO2 SLP219 T00720061
Conditions at: KDUJ (DU BOIS , PA, US) observed 0053 UTC 20 February 2018
Temperature: 7.2°C (45°F)
Dewpoint: 6.1°C (43°F) [RH = 93%]
Pressure (altimeter): 30.15 inches Hg (1021.1 mb)
[Sea-level pressure: 1021.9 mb]
Winds: from the ESE (120 degrees) at 7 MPH (6 knots; 3.1 m/s)
Visibility: 4 miles (6 km)
Ceiling: 4100 feet AGL
Clouds: broken clouds at 4100 feet AGL
overcast cloud deck at 4700 feet AGL
Weather: BR  (mist)

METAR text: KDUJ 200038Z AUTO 11004KT 2 1/2SM BR FEW002 BKN039 OVC049 07/06 A3015 RMK AO2 T00670061
Conditions at: KDUJ (DU BOIS , PA, US) observed 0038 UTC 20 February 2018
Temperature: 6.7°C (44°F)
Dewpoint: 6.1°C (43°F) [RH = 96%]
Pressure (altimeter): 30.15 inches Hg (1021.1 mb)
Winds: from the ESE (110 degrees) at 5 MPH (4 knots; 2.1 m/s)
Visibility: 2.50 miles (4.02 km)
Ceiling: 3900 feet AGL
Clouds: few clouds at 200 feet AGL
broken clouds at 3900 feet AGL
overcast cloud deck at 4900 feet AGL
Weather: BR  (mist)

METAR text: KDUJ 200028Z AUTO 11004KT 1 1/2SM BR SCT002 OVC039 07/06 A3015 RMK AO2 T00670061
Conditions at: KDUJ (DU BOIS , PA, US) observed 0028 UTC 20 February 2018
Temperature: 6.7°C (44°F)
Dewpoint: 6.1°C (43°F) [RH = 96%]
Pressure (altimeter): 30.15 inches Hg (1021.1 mb)
Winds: from the ESE (110 degrees) at 5 MPH (4 knots; 2.1 m/s)
Visibility: 1.50 miles (2.41 km)
Ceiling: 3900 feet AGL
Clouds: scattered clouds at 200 feet AGL
overcast cloud deck at 3900 feet AGL
Weather: BR  (mist)

METAR text: KDUJ 200023Z AUTO 11004KT 3/4SM BR BKN002 OVC039 07/06 A3015 RMK AO2 T00670056
Conditions at: KDUJ (DU BOIS , PA, US) observed 0023 UTC 20 February 2018
Temperature: 6.7°C (44°F)
Dewpoint: 5.6°C (42°F) [RH = 93%]
Pressure (altimeter): 30.15 inches Hg (1021.1 mb)
Winds: from the ESE (110 degrees) at 5 MPH (4 knots; 2.1 m/s)
Visibility: 0.75 miles (1.21 km)
Ceiling: 200 feet AGL
Clouds: broken clouds at 200 feet AGL
overcast cloud deck at 3900 feet AGL
Weather: BR  (mist)

METAR text: KDUJ 192353Z AUTO 10004KT 1/4SM FG VV002 06/06 A3015 RMK AO2 SLP221 P0001 60040 T00610056 10078 20044 51004
Conditions at: KDUJ (DU BOIS , PA, US) observed 2353 UTC 19 February 2018
Temperature: 6.1°C (43°F)
Dewpoint: 5.6°C (42°F) [RH = 97%]
Pressure (altimeter): 30.15 inches Hg (1021.1 mb)
[Sea-level pressure: 1022.1 mb]
Winds: from the E (100 degrees) at 5 MPH (4 knots; 2.1 m/s)
Visibility: 0.25 miles (0.40 km)
Ceiling: indefinite ceiling with vertical visibility of 200 feet AGL
Clouds: obscured sky
Weather: FG  (fog)

METAR text: KDUJ 192253Z AUTO 12006KT 1/4SM FG OVC002 07/06 A3015 RMK AO2 RAE38 SLP222 P0006 T00670061
Conditions at: KDUJ (DU BOIS , PA, US) observed 2253 UTC 19 February 2018
Temperature: 6.7°C (44°F)
Dewpoint: 6.1°C (43°F) [RH = 96%]
Pressure (altimeter): 30.15 inches Hg (1021.1 mb)
[Sea-level pressure: 1022.2 mb]
Winds: from the ESE (120 degrees) at 7 MPH (6 knots; 3.1 m/s)
Visibility: 0.25 miles (0.40 km)
Ceiling: 200 feet AGL
Clouds: overcast cloud deck at 200 feet AGL
Weather: FG  (fog)

METAR text: KDUJ 192233Z AUTO 13005KT 1/2SM -RA FG BKN002 BKN013 OVC022 07/06 A3015 RMK AO2 P0006 T00670061
Conditions at: KDUJ (DU BOIS , PA, US) observed 2233 UTC 19 February 2018
Temperature: 6.7°C (44°F)
Dewpoint: 6.1°C (43°F) [RH = 96%]
Pressure (altimeter): 30.15 inches Hg (1021.1 mb)
Winds: from the SE (130 degrees) at 6 MPH (5 knots; 2.6 m/s)
Visibility: 0.50 miles (0.80 km)
Ceiling: 200 feet AGL
Clouds: broken clouds at 200 feet AGL
broken clouds at 1300 feet AGL
overcast cloud deck at 2200 feet AGL
Weather: -RA FG  (light rain, fog)

METAR text: KDUJ 192229Z AUTO 12005KT 1/2SM -RA FG SCT002 OVC022 07/06 A3015 RMK AO2 P0006 T00670056
Conditions at: KDUJ (DU BOIS , PA, US) observed 2229 UTC 19 February 2018
Temperature: 6.7°C (44°F)
Dewpoint: 5.6°C (42°F) [RH = 93%]
Pressure (altimeter): 30.15 inches Hg (1021.1 mb)
Winds: from the ESE (120 degrees) at 6 MPH (5 knots; 2.6 m/s)
Visibility: 0.50 miles (0.80 km)
Ceiling: 2200 feet AGL
Clouds: scattered clouds at 200 feet AGL
overcast cloud deck at 2200 feet AGL
Weather: -RA FG  (light rain, fog)

METAR text: KDUJ 192222Z AUTO 11005KT 1SM -RA BR SCT002 BKN022 OVC032 07/06 A3015 RMK AO2 P0005 T00720061
Conditions at: KDUJ (DU BOIS , PA, US) observed 2222 UTC 19 February 2018
Temperature: 7.2°C (45°F)
Dewpoint: 6.1°C (43°F) [RH = 93%]
Pressure (altimeter): 30.15 inches Hg (1021.1 mb)
Winds: from the ESE (110 degrees) at 6 MPH (5 knots; 2.6 m/s)
Visibility: 1.00 miles (1.61 km)
Ceiling: 2200 feet AGL
Clouds: scattered clouds at 200 feet AGL
broken clouds at 2200 feet AGL
overcast cloud deck at 3200 feet AGL
Weather: -RA BR  (light rain, mist)

METAR text: KDUJ 192209Z AUTO 13004KT 1SM -RA BR BKN002 OVC021 07/06 A3016 RMK AO2 P0003 T00720061
Conditions at: KDUJ (DU BOIS , PA, US) observed 2209 UTC 19 February 2018
Temperature: 7.2°C (45°F)
Dewpoint: 6.1°C (43°F) [RH = 93%]
Pressure (altimeter): 30.16 inches Hg (1021.4 mb)
Winds: from the SE (130 degrees) at 5 MPH (4 knots; 2.1 m/s)
Visibility: 1.00 miles (1.61 km)
Ceiling: 200 feet AGL
Clouds: broken clouds at 200 feet AGL
overcast cloud deck at 2100 feet AGL
Weather: -RA BR  (light rain, mist)

METAR text: KDUJ 192153Z AUTO 13004KT M1/4SM -RA FG OVC003 06/05 A3016 RMK AO2 RAB21E44B48 SLP225 P0003 T00610050
Conditions at: KDUJ (DU BOIS , PA, US) observed 2153 UTC 19 February 2018
Temperature: 6.1°C (43°F)
Dewpoint: 5.0°C (41°F) [RH = 93%]
Pressure (altimeter): 30.16 inches Hg (1021.4 mb)
[Sea-level pressure: 1022.5 mb]
Winds: from the SE (130 degrees) at 5 MPH (4 knots; 2.1 m/s)
Visibility: 0.25 miles (0.40 km)
Ceiling: 300 feet AGL
Clouds: overcast cloud deck at 300 feet AGL
Weather: -RA FG  (light rain, fog)

METAR text: KDUJ 192145Z AUTO 07004KT 1/4SM FG OVC003 06/05 A3015 RMK AO2 RAB21E44 P0001 T00610050
Conditions at: KDUJ (DU BOIS , PA, US) observed 2145 UTC 19 February 2018
Temperature: 6.1°C (43°F)
Dewpoint: 5.0°C (41°F) [RH = 93%]
Pressure (altimeter): 30.15 inches Hg (1021.1 mb)
Winds: from the ENE (70 degrees) at 5 MPH (4 knots; 2.1 m/s)
Visibility: 0.25 miles (0.40 km)
Ceiling: 300 feet AGL
Clouds: overcast cloud deck at 300 feet AGL
Weather: FG  (fog)

METAR text: KDUJ 192134Z AUTO 00000KT 3/4SM -RA BR BKN003 OVC023 07/07 A3015 RMK AO2 RAB21 P0001 T00670067
Conditions at: KDUJ (DU BOIS , PA, US) observed 2134 UTC 19 February 2018
Temperature: 6.7°C (44°F)
Dewpoint: 6.7°C (44°F) [RH = 100%]
Pressure (altimeter): 30.15 inches Hg (1021.1 mb)
Winds: calm
Visibility: 0.75 miles (1.21 km)
Ceiling: 300 feet AGL
Clouds: broken clouds at 300 feet AGL
overcast cloud deck at 2300 feet AGL
Weather: -RA BR  (light rain, mist)

METAR text: KDUJ 192131Z AUTO 00000KT 2 1/2SM -RA BR BKN003 OVC023 08/07 A3015 RMK AO2 RAB21 P0001 T00780072
Conditions at: KDUJ (DU BOIS , PA, US) observed 2131 UTC 19 February 2018
Temperature: 7.8°C (46°F)
Dewpoint: 7.2°C (45°F) [RH = 96%]
Pressure (altimeter): 30.15 inches Hg (1021.1 mb)
Winds: calm
Visibility: 2.50 miles (4.02 km)
Ceiling: 300 feet AGL
Clouds: broken clouds at 300 feet AGL
overcast cloud deck at 2300 feet AGL
Weather: -RA BR  (light rain, mist)

METAR text: KDUJ 192111Z AUTO 16005KT 6SM BR SCT003 BKN021 OVC026 08/07 A3014 RMK AO2 T00780067
Conditions at: KDUJ (DU BOIS , PA, US) observed 2111 UTC 19 February 2018
Temperature: 7.8°C (46°F)
Dewpoint: 6.7°C (44°F) [RH = 93%]
Pressure (altimeter): 30.14 inches Hg (1020.7 mb)
Winds: from the SSE (160 degrees) at 6 MPH (5 knots; 2.6 m/s)
Visibility: 6 miles (10 km)
Ceiling: 2100 feet AGL
Clouds: scattered clouds at 300 feet AGL
broken clouds at 2100 feet AGL
overcast cloud deck at 2600 feet AGL
Weather: BR  (mist)

METAR text: KDUJ 192053Z AUTO 17005KT 5SM BR BKN002 OVC021 08/07 A3014 RMK AO2 RAB43E52 SLP217 P0001 60030 T00780067 55004
Conditions at: KDUJ (DU BOIS , PA, US) observed 2053 UTC 19 February 2018
Temperature: 7.8°C (46°F)
Dewpoint: 6.7°C (44°F) [RH = 93%]
Pressure (altimeter): 30.14 inches Hg (1020.7 mb)
[Sea-level pressure: 1021.7 mb]
Winds: from the S (170 degrees) at 6 MPH (5 knots; 2.6 m/s)
Visibility: 5 miles (8 km)
Ceiling: 200 feet AGL
Clouds: broken clouds at 200 feet AGL
overcast cloud deck at 2100 feet AGL
Weather: BR  (mist)

METAR text: KDUJ 192045Z AUTO 16005KT 3SM -RA BR OVC002 07/07 A3014 RMK AO2 RAB43 P0001 T00720067
Conditions at: KDUJ (DU BOIS , PA, US) observed 2045 UTC 19 February 2018
Temperature: 7.2°C (45°F)
Dewpoint: 6.7°C (44°F) [RH = 97%]
Pressure (altimeter): 30.14 inches Hg (1020.7 mb)
Winds: from the SSE (160 degrees) at 6 MPH (5 knots; 2.6 m/s)
Visibility: 3 miles (5 km)
Ceiling: 200 feet AGL
Clouds: overcast cloud deck at 200 feet AGL
Weather: -RA BR  (light rain, mist)

METAR text: KDUJ 192035Z AUTO 17005KT 2SM BR OVC002 07/07 A3013 RMK AO2 P0001 T00720067
Conditions at: KDUJ (DU BOIS , PA, US) observed 2035 UTC 19 February 2018
Temperature: 7.2°C (45°F)
Dewpoint: 6.7°C (44°F) [RH = 97%]
Pressure (altimeter): 30.13 inches Hg (1020.4 mb)
Winds: from the S (170 degrees) at 6 MPH (5 knots; 2.6 m/s)
Visibility: 2.00 miles (3.22 km)
Ceiling: 200 feet AGL
Clouds: overcast cloud deck at 200 feet AGL
Weather: BR  (mist)

METAR text: KDUJ 192022Z AUTO 17004KT 1/2SM FG VV002 07/06 A3013 RMK AO2 T00670056
Conditions at: KDUJ (DU BOIS , PA, US) observed 2022 UTC 19 February 2018
Temperature: 6.7°C (44°F)
Dewpoint: 5.6°C (42°F) [RH = 93%]
Pressure (altimeter): 30.13 inches Hg (1020.4 mb)
Winds: from the S (170 degrees) at 5 MPH (4 knots; 2.1 m/s)
Visibility: 0.50 miles (0.80 km)
Ceiling: indefinite ceiling with vertical visibility of 200 feet AGL
Clouds: obscured sky
Weather: FG  (fog)

METAR text: KDUJ 191953Z AUTO 20003KT 1/4SM FG VV002 06/05 A3013 RMK AO2 RAE44 SLP216 P0014 T00560050
Conditions at: KDUJ (DU BOIS , PA, US) observed 1953 UTC 19 February 2018
Temperature: 5.6°C (42°F)
Dewpoint: 5.0°C (41°F) [RH = 96%]
Pressure (altimeter): 30.13 inches Hg (1020.4 mb)
[Sea-level pressure: 1021.6 mb]
Winds: from the SSW (200 degrees) at 3 MPH (3 knots; 1.6 m/s)
Visibility: 0.25 miles (0.40 km)
Ceiling: indefinite ceiling with vertical visibility of 200 feet AGL
Clouds: obscured sky
Weather: FG  (fog)

METAR text: KDUJ 191929Z AUTO 13004KT 1/4SM -RA FG OVC002 05/04 A3013 RMK AO2 P0013 T00500039
Conditions at: KDUJ (DU BOIS , PA, US) observed 1929 UTC 19 February 2018
Temperature: 5.0°C (41°F)
Dewpoint: 3.9°C (39°F) [RH = 93%]
Pressure (altimeter): 30.13 inches Hg (1020.4 mb)
Winds: from the SE (130 degrees) at 5 MPH (4 knots; 2.1 m/s)
Visibility: 0.25 miles (0.40 km)
Ceiling: 200 feet AGL
Clouds: overcast cloud deck at 200 feet AGL
Weather: -RA FG  (light rain, fog)

METAR text: KDUJ 191853Z AUTO 13009G14KT 1SM RA BR OVC002 06/04 A3014 RMK AO2 SLP218 P0015 T00560044
Conditions at: KDUJ (DU BOIS , PA, US) observed 1853 UTC 19 February 2018
Temperature: 5.6°C (42°F)
Dewpoint: 4.4°C (40°F) [RH = 92%]
Pressure (altimeter): 30.14 inches Hg (1020.7 mb)
[Sea-level pressure: 1021.8 mb]
Winds: from the SE (130 degrees) at 10 MPH (9 knots; 4.7 m/s)
gusting to 16 MPH (14 knots; 7.3 m/s)
Visibility: 1.00 miles (1.61 km)
Ceiling: 200 feet AGL
Clouds: overcast cloud deck at 200 feet AGL
Weather: RA BR  (rain, mist)

METAR text: KDUJ 191843Z AUTO 15007KT 100V180 1 1/4SM -RA BR OVC002 06/04 A3014 RMK AO2 P0009 T00560044
Conditions at: KDUJ (DU BOIS , PA, US) observed 1843 UTC 19 February 2018
Temperature: 5.6°C (42°F)
Dewpoint: 4.4°C (40°F) [RH = 92%]
Pressure (altimeter): 30.14 inches Hg (1020.7 mb)
Winds: from the SSE (150 degrees) at 8 MPH (7 knots; 3.6 m/s)
Visibility: 1.25 miles (2.01 km)
Ceiling: 200 feet AGL
Clouds: overcast cloud deck at 200 feet AGL
Weather: -RA BR  (light rain, mist)

METAR text: KDUJ 191835Z AUTO VRB06KT 2SM -RA BR OVC002 05/04 A3015 RMK AO2 P0006 T00500039
Conditions at: KDUJ (DU BOIS , PA, US) observed 1835 UTC 19 February 2018
Temperature: 5.0°C (41°F)
Dewpoint: 3.9°C (39°F) [RH = 93%]
Pressure (altimeter): 30.15 inches Hg (1021.1 mb)
Winds: variable direction winds at 7 MPH (6 knots; 3.1 m/s)
Visibility: 2.00 miles (3.22 km)
Ceiling: 200 feet AGL
Clouds: overcast cloud deck at 200 feet AGL
Weather: -RA BR  (light rain, mist)

METAR text: KDUJ 191824Z AUTO VRB05KT 1 3/4SM -RA BR OVC002 05/04 A3015 RMK AO2 P0005 T00500039
Conditions at: KDUJ (DU BOIS , PA, US) observed 1824 UTC 19 February 2018
Temperature: 5.0°C (41°F)
Dewpoint: 3.9°C (39°F) [RH = 93%]
Pressure (altimeter): 30.15 inches Hg (1021.1 mb)
Winds: variable direction winds at 6 MPH (5 knots; 2.6 m/s)
Visibility: 1.75 miles (2.82 km)
Ceiling: 200 feet AGL
Clouds: overcast cloud deck at 200 feet AGL
Weather: -RA BR  (light rain, mist)

METAR text: KDUJ 191814Z AUTO 14008KT 2 1/2SM -RA BR OVC002 04/04 A3015 RMK AO2 P0004 T00440039
Conditions at: KDUJ (DU BOIS , PA, US) observed 1814 UTC 19 February 2018
Temperature: 4.4°C (40°F)
Dewpoint: 3.9°C (39°F) [RH = 97%]
Pressure (altimeter): 30.15 inches Hg (1021.1 mb)
Winds: from the SE (140 degrees) at 9 MPH (8 knots; 4.2 m/s)
Visibility: 2.50 miles (4.02 km)
Ceiling: 200 feet AGL
Clouds: overcast cloud deck at 200 feet AGL
Weather: -RA BR  (light rain, mist)

METAR text: KDUJ 191753Z AUTO 14008KT 1 3/4SM -RA BR BKN003 OVC014 04/03 A3015 RMK AO2 SLP225 P0011 60033 T00440033 10044 20022 56014
Conditions at: KDUJ (DU BOIS , PA, US) observed 1753 UTC 19 February 2018
Temperature: 4.4°C (40°F)
Dewpoint: 3.3°C (38°F) [RH = 93%]
Pressure (altimeter): 30.15 inches Hg (1021.1 mb)
[Sea-level pressure: 1022.5 mb]
Winds: from the SE (140 degrees) at 9 MPH (8 knots; 4.2 m/s)
Visibility: 1.75 miles (2.82 km)
Ceiling: 300 feet AGL
Clouds: broken clouds at 300 feet AGL
overcast cloud deck at 1400 feet AGL
Weather: -RA BR  (light rain, mist)

METAR text: KDUJ 191750Z AUTO 15007KT 1 3/4SM -RA BR BKN003 OVC014 04/03 A3015 RMK AO2 P0010
Conditions at: KDUJ (DU BOIS , PA, US) observed 1750 UTC 19 February 2018
Temperature: 4.0°C (39°F)
Dewpoint: 3.0°C (37°F) [RH = 93%]
Pressure (altimeter): 30.15 inches Hg (1021.1 mb)
Winds: from the SSE (150 degrees) at 8 MPH (7 knots; 3.6 m/s)
Visibility: 1.75 miles (2.82 km)
Ceiling: 300 feet AGL
Clouds: broken clouds at 300 feet AGL
overcast cloud deck at 1400 feet AGL
Weather: -RA BR  (light rain, mist)

METAR text: KDUJ 191728Z AUTO 15007KT 2 1/2SM -RA BR OVC002 04/03 A3015 RMK AO2 P0007 T00390028
Conditions at: KDUJ (DU BOIS , PA, US) observed 1728 UTC 19 February 2018
Temperature: 3.9°C (39°F)
Dewpoint: 2.8°C (37°F) [RH = 93%]
Pressure (altimeter): 30.15 inches Hg (1021.1 mb)
Winds: from the SSE (150 degrees) at 8 MPH (7 knots; 3.6 m/s)
Visibility: 2.50 miles (4.02 km)
Ceiling: 200 feet AGL
Clouds: overcast cloud deck at 200 feet AGL
Weather: -RA BR  (light rain, mist)

METAR text: KDUJ 191653Z AUTO 13008KT 1 1/2SM -RA BR BKN003 OVC007 03/02 A3018 RMK AO2 SLP234 P0017 T00330022
Conditions at: KDUJ (DU BOIS , PA, US) observed 1653 UTC 19 February 2018
Temperature: 3.3°C (38°F)
Dewpoint: 2.2°C (36°F) [RH = 92%]
Pressure (altimeter): 30.18 inches Hg (1022.1 mb)
[Sea-level pressure: 1023.4 mb]
Winds: from the SE (130 degrees) at 9 MPH (8 knots; 4.2 m/s)
Visibility: 1.50 miles (2.41 km)
Ceiling: 300 feet AGL
Clouds: broken clouds at 300 feet AGL
overcast cloud deck at 700 feet AGL
Weather: -RA BR  (light rain, mist)

METAR text: KDUJ 191626Z AUTO 13009KT 1 1/2SM -RA BR BKN003 OVC014 03/02 A3018 RMK AO2 P0007 T00330022
Conditions at: KDUJ (DU BOIS , PA, US) observed 1626 UTC 19 February 2018
Temperature: 3.3°C (38°F)
Dewpoint: 2.2°C (36°F) [RH = 92%]
Pressure (altimeter): 30.18 inches Hg (1022.1 mb)
Winds: from the SE (130 degrees) at 10 MPH (9 knots; 4.7 m/s)
Visibility: 1.50 miles (2.41 km)
Ceiling: 300 feet AGL
Clouds: broken clouds at 300 feet AGL
overcast cloud deck at 1400 feet AGL
Weather: -RA BR  (light rain, mist)

METAR text: KDUJ 191611Z AUTO 14007KT 2SM -RA BR OVC003 03/02 A3019 RMK AO2 P0004 T00330022
Conditions at: KDUJ (DU BOIS , PA, US) observed 1611 UTC 19 February 2018
Temperature: 3.3°C (38°F)
Dewpoint: 2.2°C (36°F) [RH = 92%]
Pressure (altimeter): 30.19 inches Hg (1022.4 mb)
Winds: from the SE (140 degrees) at 8 MPH (7 knots; 3.6 m/s)
Visibility: 2.00 miles (3.22 km)
Ceiling: 300 feet AGL
Clouds: overcast cloud deck at 300 feet AGL
Weather: -RA BR  (light rain, mist)

METAR text: KDUJ 191551Z AUTO 13006KT 1 3/4SM -RA BR OVC003 03/02 A3020 RMK AO2 UPB23E41RAB41 SLP242 P0005 T00330022
Conditions at: KDUJ (DU BOIS , PA, US) observed 1551 UTC 19 February 2018
Temperature: 3.3°C (38°F)
Dewpoint: 2.2°C (36°F) [RH = 92%]
Pressure (altimeter): 30.20 inches Hg (1022.8 mb)
[Sea-level pressure: 1024.2 mb]
Winds: from the SE (130 degrees) at 7 MPH (6 knots; 3.1 m/s)
Visibility: 1.75 miles (2.82 km)
Ceiling: 300 feet AGL
Clouds: overcast cloud deck at 300 feet AGL
Weather: -RA BR  (light rain, mist)

METAR text: KDUJ 191550Z AUTO 14005KT 1 3/4SM -RA BR OVC002 03/02 A3020 RMK AO2 UPB23E41RAB41 P0004
Conditions at: KDUJ (DU BOIS , PA, US) observed 1550 UTC 19 February 2018
Temperature: 3.0°C (37°F)
Dewpoint: 2.0°C (36°F) [RH = 93%]
Pressure (altimeter): 30.20 inches Hg (1022.8 mb)
Winds: from the SE (140 degrees) at 6 MPH (5 knots; 2.6 m/s)
Visibility: 1.75 miles (2.82 km)
Ceiling: 200 feet AGL
Clouds: overcast cloud deck at 200 feet AGL
Weather: -RA BR  (light rain, mist)

METAR text: KDUJ 191536Z AUTO 13009KT 3SM UP BR OVC002 03/02 A3019 RMK AO2 UPB23 P0001 T00280017
Conditions at: KDUJ (DU BOIS , PA, US) observed 1536 UTC 19 February 2018
Temperature: 2.8°C (37°F)
Dewpoint: 1.7°C (35°F) [RH = 92%]
Pressure (altimeter): 30.19 inches Hg (1022.4 mb)
Winds: from the SE (130 degrees) at 10 MPH (9 knots; 4.7 m/s)
Visibility: 3 miles (5 km)
Ceiling: 200 feet AGL
Clouds: overcast cloud deck at 200 feet AGL
Weather: BR UP  (mist, unknown precipitation)

METAR text: KDUJ 191528Z AUTO 13009KT 2 1/2SM UP BR OVC002 03/02 A3018 RMK AO2 UPB23 P0001 T00280017
Conditions at: KDUJ (DU BOIS , PA, US) observed 1528 UTC 19 February 2018
Temperature: 2.8°C (37°F)
Dewpoint: 1.7°C (35°F) [RH = 92%]
Pressure (altimeter): 30.18 inches Hg (1022.1 mb)
Winds: from the SE (130 degrees) at 10 MPH (9 knots; 4.7 m/s)
Visibility: 2.50 miles (4.02 km)
Ceiling: 200 feet AGL
Clouds: overcast cloud deck at 200 feet AGL
Weather: BR UP  (mist, unknown precipitation)

METAR text: KDUJ 191518Z AUTO 13011KT 1SM BR VV002 03/02 A3019 RMK AO2 T00280017
Conditions at: KDUJ (DU BOIS , PA, US) observed 1518 UTC 19 February 2018
Temperature: 2.8°C (37°F)
Dewpoint: 1.7°C (35°F) [RH = 92%]
Pressure (altimeter): 30.19 inches Hg (1022.4 mb)
Winds: from the SE (130 degrees) at 13 MPH (11 knots; 5.7 m/s)
Visibility: 1.00 miles (1.61 km)
Ceiling: indefinite ceiling with vertical visibility of 200 feet AGL
Clouds: obscured sky
Weather: BR  (mist)

METAR text: KDUJ 191505Z AUTO 13011KT 1/4SM FG VV002 02/02 A3019 RMK AO2 T00220017
Conditions at: KDUJ (DU BOIS , PA, US) observed 1505 UTC 19 February 2018
Temperature: 2.2°C (36°F)
Dewpoint: 1.7°C (35°F) [RH = 96%]
Pressure (altimeter): 30.19 inches Hg (1022.4 mb)
Winds: from the SE (130 degrees) at 13 MPH (11 knots; 5.7 m/s)
Visibility: 0.25 miles (0.40 km)
Ceiling: indefinite ceiling with vertical visibility of 200 feet AGL
Clouds: obscured sky
Weather: FG  (fog)

METAR text: KDUJ 191453Z AUTO 13010KT 1/2SM FG VV002 02/01 A3020 RMK AO2 SLP246 T00220011 58001
Conditions at: KDUJ (DU BOIS , PA, US) observed 1453 UTC 19 February 2018
Temperature: 2.2°C (36°F)
Dewpoint: 1.1°C (34°F) [RH = 92%]
Pressure (altimeter): 30.20 inches Hg (1022.8 mb)
[Sea-level pressure: 1024.6 mb]
Winds: from the SE (130 degrees) at 12 MPH (10 knots; 5.2 m/s)
Visibility: 0.50 miles (0.80 km)
Ceiling: indefinite ceiling with vertical visibility of 200 feet AGL
Clouds: obscured sky
Weather: FG  (fog)

METAR text: KDUJ 191451Z AUTO 13010KT 1/2SM FG OVC003 02/01 A3021 RMK AO2
Conditions at: KDUJ (DU BOIS , PA, US) observed 1451 UTC 19 February 2018
Temperature: 2.0°C (36°F)
Dewpoint: 1.0°C (34°F) [RH = 93%]
Pressure (altimeter): 30.21 inches Hg (1023.1 mb)
Winds: from the SE (130 degrees) at 12 MPH (10 knots; 5.2 m/s)
Visibility: 0.50 miles (0.80 km)
Ceiling: 300 feet AGL
Clouds: overcast cloud deck at 300 feet AGL
Weather: FG  (fog)

METAR text: KDUJ 191436Z AUTO 12011KT 1SM BR OVC003 02/01 A3021 RMK AO2 T00220011
Conditions at: KDUJ (DU BOIS , PA, US) observed 1436 UTC 19 February 2018
Temperature: 2.2°C (36°F)
Dewpoint: 1.1°C (34°F) [RH = 92%]
Pressure (altimeter): 30.21 inches Hg (1023.1 mb)
Winds: from the ESE (120 degrees) at 13 MPH (11 knots; 5.7 m/s)
Visibility: 1.00 miles (1.61 km)
Ceiling: 300 feet AGL
Clouds: overcast cloud deck at 300 feet AGL
Weather: BR  (mist)

METAR text: KDUJ 191423Z AUTO 13009KT 1/2SM FG OVC005 02/01 A3022 RMK AO2 T00220011
Conditions at: KDUJ (DU BOIS , PA, US) observed 1423 UTC 19 February 2018
Temperature: 2.2°C (36°F)
Dewpoint: 1.1°C (34°F) [RH = 92%]
Pressure (altimeter): 30.22 inches Hg (1023.5 mb)
Winds: from the SE (130 degrees) at 10 MPH (9 knots; 4.7 m/s)
Visibility: 0.50 miles (0.80 km)
Ceiling: 500 feet AGL
Clouds: overcast cloud deck at 500 feet AGL
Weather: FG  (fog)

METAR text: KDUJ 191412Z AUTO 13009KT 1 1/4SM BR OVC006 02/01 A3022 RMK AO2 T00220006
Conditions at: KDUJ (DU BOIS , PA, US) observed 1412 UTC 19 February 2018
Temperature: 2.2°C (36°F)
Dewpoint: 0.6°C (33°F) [RH = 89%]
Pressure (altimeter): 30.22 inches Hg (1023.5 mb)
Winds: from the SE (130 degrees) at 10 MPH (9 knots; 4.7 m/s)
Visibility: 1.25 miles (2.01 km)
Ceiling: 600 feet AGL
Clouds: overcast cloud deck at 600 feet AGL
Weather: BR  (mist)

METAR text: KDUJ 191353Z AUTO 13008KT 2 1/2SM BR BKN007 OVC011 02/01 A3021 RMK AO2 SLP248 T00220006
Conditions at: KDUJ (DU BOIS , PA, US) observed 1353 UTC 19 February 2018
Temperature: 2.2°C (36°F)
Dewpoint: 0.6°C (33°F) [RH = 89%]
Pressure (altimeter): 30.21 inches Hg (1023.1 mb)
[Sea-level pressure: 1024.8 mb]
Winds: from the SE (130 degrees) at 9 MPH (8 knots; 4.2 m/s)
Visibility: 2.50 miles (4.02 km)
Ceiling: 700 feet AGL
Clouds: broken clouds at 700 feet AGL
overcast cloud deck at 1100 feet AGL
Weather: BR  (mist)

METAR text: KDUJ 191336Z AUTO 13009KT 1 1/2SM BR OVC013 02/00 A3022 RMK AO2 T00220000
Conditions at: KDUJ (DU BOIS , PA, US) observed 1336 UTC 19 February 2018
Temperature: 2.2°C (36°F)
Dewpoint: 0.0°C (32°F) [RH = 85%]
Pressure (altimeter): 30.22 inches Hg (1023.5 mb)
Winds: from the SE (130 degrees) at 10 MPH (9 knots; 4.7 m/s)
Visibility: 1.50 miles (2.41 km)
Ceiling: 1300 feet AGL
Clouds: overcast cloud deck at 1300 feet AGL
Weather: BR  (mist)

METAR text: KDUJ 191329Z AUTO 14005KT 2SM HZ BKN013 OVC018 03/M01 A3023 RMK AO2 T00281006
Conditions at: KDUJ (DU BOIS , PA, US) observed 1329 UTC 19 February 2018
Temperature: 2.8°C (37°F)
Dewpoint: -0.6°C (31°F) [RH = 78%]
Pressure (altimeter): 30.23 inches Hg (1023.8 mb)
Winds: from the SE (140 degrees) at 6 MPH (5 knots; 2.6 m/s)
Visibility: 2.00 miles (3.22 km)
Ceiling: 1300 feet AGL
Clouds: broken clouds at 1300 feet AGL
overcast cloud deck at 1800 feet AGL
Weather: HZ  (haze)

METAR text: KDUJ 191253Z AUTO 12007KT 10SM BKN022 OVC029 03/M02 A3021 RMK AO2 SLP246 T00281017
Conditions at: KDUJ (DU BOIS , PA, US) observed 1253 UTC 19 February 2018
Temperature: 2.8°C (37°F)
Dewpoint: -1.7°C (29°F) [RH = 72%]
Pressure (altimeter): 30.21 inches Hg (1023.1 mb)
[Sea-level pressure: 1024.6 mb]
Winds: from the ESE (120 degrees) at 8 MPH (7 knots; 3.6 m/s)
Visibility: 10 or more miles (16+ km)
Ceiling: 2200 feet AGL
Clouds: broken clouds at 2200 feet AGL
overcast cloud deck at 2900 feet AGL
Weather: automated observation with no human augmentation;
there may or may not be significant weather present at this time

METAR text: KDUJ 191215Z AUTO 14008KT 10SM BKN026 OVC041 02/M02 A3019 RMK AO2 T00221017
Conditions at: KDUJ (DU BOIS , PA, US) observed 1215 UTC 19 February 2018
Temperature: 2.2°C (36°F)
Dewpoint: -1.7°C (29°F) [RH = 75%]
Pressure (altimeter): 30.19 inches Hg (1022.4 mb)
Winds: from the SE (140 degrees) at 9 MPH (8 knots; 4.2 m/s)
Visibility: 10 or more miles (16+ km)
Ceiling: 2600 feet AGL
Clouds: broken clouds at 2600 feet AGL
overcast cloud deck at 4100 feet AGL
Weather: automated observation with no human augmentation;
there may or may not be significant weather present at this time

METAR text: KDUJ 191153Z AUTO 13008KT 10SM SCT041 BKN075 BKN090 02/M02 A3020 RMK AO2 SLP243 T00221022 10022 20000 50001
Conditions at: KDUJ (DU BOIS , PA, US) observed 1153 UTC 19 February 2018
Temperature: 2.2°C (36°F)
Dewpoint: -2.2°C (28°F) [RH = 73%]
Pressure (altimeter): 30.20 inches Hg (1022.8 mb)
[Sea-level pressure: 1024.3 mb]
Winds: from the SE (130 degrees) at 9 MPH (8 knots; 4.2 m/s)
Visibility: 10 or more miles (16+ km)
Ceiling: 7500 feet AGL
Clouds: scattered clouds at 4100 feet AGL
broken clouds at 7500 feet AGL
broken clouds at 9000 feet AGL
Weather: automated observation with no human augmentation;
there may or may not be significant weather present at this time

METAR text: KDUJ 191053Z AUTO 11008KT 10SM FEW080 BKN095 01/M03 A3020 RMK AO2 SLP244 T00111028
Conditions at: KDUJ (DU BOIS , PA, US) observed 1053 UTC 19 February 2018
Temperature: 1.1°C (34°F)
Dewpoint: -2.8°C (27°F) [RH = 75%]
Pressure (altimeter): 30.20 inches Hg (1022.8 mb)
[Sea-level pressure: 1024.4 mb]
Winds: from the ESE (110 degrees) at 9 MPH (8 knots; 4.2 m/s)
Visibility: 10 or more miles (16+ km)
Ceiling: 9500 feet AGL
Clouds: few clouds at 8000 feet AGL
broken clouds at 9500 feet AGL
Weather: automated observation with no human augmentation;
there may or may not be significant weather present at this time

METAR text: KDUJ 190953Z AUTO 12008KT 10SM FEW120 01/M03 A3020 RMK AO2 SLP242 T00061033
Conditions at: KDUJ (DU BOIS , PA, US) observed 0953 UTC 19 February 2018
Temperature: 0.6°C (33°F)
Dewpoint: -3.3°C (26°F) [RH = 75%]
Pressure (altimeter): 30.20 inches Hg (1022.8 mb)
[Sea-level pressure: 1024.2 mb]
Winds: from the ESE (120 degrees) at 9 MPH (8 knots; 4.2 m/s)
Visibility: 10 or more miles (16+ km)
Ceiling: at least 12,000 feet AGL
Clouds: few clouds at 12000 feet AGL
Weather: automated observation with no human augmentation;
there may or may not be significant weather present at this time

METAR text: KDUJ 190853Z AUTO 13010KT 10SM CLR 01/M04 A3020 RMK AO2 SLP241 T00111039 56008
Conditions at: KDUJ (DU BOIS , PA, US) observed 0853 UTC 19 February 2018
Temperature: 1.1°C (34°F)
Dewpoint: -3.9°C (25°F) [RH = 69%]
Pressure (altimeter): 30.20 inches Hg (1022.8 mb)
[Sea-level pressure: 1024.1 mb]
Winds: from the SE (130 degrees) at 12 MPH (10 knots; 5.2 m/s)
Visibility: 10 or more miles (16+ km)
Ceiling: at least 12,000 feet AGL
Clouds: sky clear below 12,000 feet AGL
Weather: automated observation with no human augmentation;
there may or may not be significant weather present at this time

METAR text: KDUJ 190753Z AUTO 13011G20KT 10SM CLR 01/M04 A3020 RMK AO2 SLP243 T00111039
Conditions at: KDUJ (DU BOIS , PA, US) observed 0753 UTC 19 February 2018
Temperature: 1.1°C (34°F)
Dewpoint: -3.9°C (25°F) [RH = 69%]
Pressure (altimeter): 30.20 inches Hg (1022.8 mb)
[Sea-level pressure: 1024.3 mb]
Winds: from the SE (130 degrees) at 13 MPH (11 knots; 5.7 m/s)
gusting to 23 MPH (20 knots; 10.4 m/s)
Visibility: 10 or more miles (16+ km)
Ceiling: at least 12,000 feet AGL
Clouds: sky clear below 12,000 feet AGL
Weather: automated observation with no human augmentation;
there may or may not be significant weather present at this time

METAR text: KDUJ 190653Z AUTO 14011G21KT 10SM CLR 01/M04 A3020 RMK AO2 SLP244 T00061044
Conditions at: KDUJ (DU BOIS , PA, US) observed 0653 UTC 19 February 2018
Temperature: 0.6°C (33°F)
Dewpoint: -4.4°C (24°F) [RH = 69%]
Pressure (altimeter): 30.20 inches Hg (1022.8 mb)
[Sea-level pressure: 1024.4 mb]
Winds: from the SE (140 degrees) at 13 MPH (11 knots; 5.7 m/s)
gusting to 24 MPH (21 knots; 10.9 m/s)
Visibility: 10 or more miles (16+ km)
Ceiling: at least 12,000 feet AGL
Clouds: sky clear below 12,000 feet AGL
Weather: automated observation with no human augmentation;
there may or may not be significant weather present at this time

METAR text: KDUJ 190553Z AUTO 13013G20KT 10SM CLR 00/M05 A3022 RMK AO2 SLP252 T00001050 10000 21022 58021
Conditions at: KDUJ (DU BOIS , PA, US) observed 0553 UTC 19 February 2018
Temperature: 0.0°C (32°F)
Dewpoint: -5.0°C (23°F) [RH = 69%]
Pressure (altimeter): 30.22 inches Hg (1023.5 mb)
[Sea-level pressure: 1025.2 mb]
Winds: from the SE (130 degrees) at 15 MPH (13 knots; 6.8 m/s)
gusting to 23 MPH (20 knots; 10.4 m/s)
Visibility: 10 or more miles (16+ km)
Ceiling: at least 12,000 feet AGL
Clouds: sky clear below 12,000 feet AGL
Weather: automated observation with no human augmentation;
there may or may not be significant weather present at this time

METAR text: KDUJ 190453Z AUTO 12009KT 10SM CLR M02/M06 A3025 RMK AO2 SLP263 T10171056 400171022
Conditions at: KDUJ (DU BOIS , PA, US) observed 0453 UTC 19 February 2018
Temperature: -1.7°C (29°F)
Dewpoint: -5.6°C (22°F) [RH = 75%]
Pressure (altimeter): 30.25 inches Hg (1024.5 mb)
[Sea-level pressure: 1026.3 mb]
Winds: from the ESE (120 degrees) at 10 MPH (9 knots; 4.7 m/s)
Visibility: 10 or more miles (16+ km)
Ceiling: at least 12,000 feet AGL
Clouds: sky clear below 12,000 feet AGL
Weather: automated observation with no human augmentation;
there may or may not be significant weather present at this time

METAR text: KDUJ 190353Z AUTO 10007KT 10SM CLR M02/M06 A3027 RMK AO2 SLP272 T10221056
Conditions at: KDUJ (DU BOIS , PA, US) observed 0353 UTC 19 February 2018
Temperature: -2.2°C (28°F)
Dewpoint: -5.6°C (22°F) [RH = 77%]
Pressure (altimeter): 30.27 inches Hg (1025.1 mb)
[Sea-level pressure: 1027.2 mb]
Winds: from the E (100 degrees) at 8 MPH (7 knots; 3.6 m/s)
Visibility: 10 or more miles (16+ km)
Ceiling: at least 12,000 feet AGL
Clouds: sky clear below 12,000 feet AGL
Weather: automated observation with no human augmentation;
there may or may not be significant weather present at this time

METAR text: KDUJ 190253Z AUTO 11007KT 10SM CLR M02/M06 A3029 RMK AO2 SLP277 T10221056 58015
Conditions at: KDUJ (DU BOIS , PA, US) observed 0253 UTC 19 February 2018
Temperature: -2.2°C (28°F)
Dewpoint: -5.6°C (22°F) [RH = 77%]
Pressure (altimeter): 30.29 inches Hg (1025.8 mb)
[Sea-level pressure: 1027.7 mb]
Winds: from the ESE (110 degrees) at 8 MPH (7 knots; 3.6 m/s)
Visibility: 10 or more miles (16+ km)
Ceiling: at least 12,000 feet AGL
Clouds: sky clear below 12,000 feet AGL
Weather: automated observation with no human augmentation;
there may or may not be significant weather present at this time

METAR text: KDUJ 190153Z AUTO 13009KT 10SM CLR M02/M06 A3031 RMK AO2 SLP286 T10171056
Conditions at: KDUJ (DU BOIS , PA, US) observed 0153 UTC 19 February 2018
Temperature: -1.7°C (29°F)
Dewpoint: -5.6°C (22°F) [RH = 75%]
Pressure (altimeter): 30.31 inches Hg (1026.5 mb)
[Sea-level pressure: 1028.6 mb]
Winds: from the SE (130 degrees) at 10 MPH (9 knots; 4.7 m/s)
Visibility: 10 or more miles (16+ km)
Ceiling: at least 12,000 feet AGL
Clouds: sky clear below 12,000 feet AGL
Weather: automated observation with no human augmentation;
there may or may not be significant weather present at this time